Impacts TAF Board
For situational awareness. Not to be used for flight planning purposes.
IDs:

KMEM - Memphis Intl, TN, US

Issued at 2252 UTC 21 Sep 2021
Updated at 2339 UTC 21 Sep 2021
Potential Impact None Slight Moderate High
Time2254Z 22/00Z 22/01Z 22/02Z 22/03Z 22/04Z 22/05Z 22/06Z 22/07Z 22/08Z 22/09Z 22/10Z 22/11Z 22/12Z>>
Type OBS PRVL PRVL PRVL PRVL PRVL PRVL PRVL PRVL PRVL PRVL PRVL PRVL PRVL
VIS 10 >6 >6 >6 >6 >6 >6 >6 >6 >6 >6 >6 >6 >6
CIG 46 20 20 20 20 20 20 40 40 40 -- -- -- --
Cover OVC OVC OVC OVC OVC OVC OVC BKN BKN BKN SKC SKC SKC SKC
FltCat VFR MVFR MVFR MVFR MVFR MVFR MVFR VFR VFR VFR VFR VFR VFR VFR
WX -- -SHRA VCTS -SHRA VCTS -SHRA VCTS -SHRA VCTS -SHRA VCTS -SHRA VCTS VCSH VCSH VCSH -- -- -- --
WDir 300 360 360 360 360 360 360 350 350 350 340 340 340 340
WSpd 6 10 10 10 10 10 10 11 11 11 10 10 10 10
WGst -- 16 16 16 16 16 16 18 18 18 -- -- -- --
Raw TAF
KMEM 212252Z 2123/2224 32007KT P6SM VCSH SCT030 OVC045
  FM220000 36010G16KT P6SM -SHRA VCTS SCT009CB OVC020
  FM220600 35011G18KT P6SM VCSH BKN040
  FM220900 34010KT P6SM SKC
  FM221600 33014G20KT P6SM SKC


Raw METAR
KMEM 212254Z 30006KT 10SM FEW029 BKN046 BKN230 OVC250 23/21 A3002 RMK AO2 RAE2156 SLP163 P0000 T02330211
KMEM 212237Z 30007KT 10SM SCT029 OVC045 23/21 A3002 RMK AO2 RAE2156 P0000 T02330206
KMEM 212225Z 30005KT 10SM FEW028 BKN034 OVC045 23/21 A3001 RMK AO2 RAE2156 P0000 T02330206
KMEM 212154Z 32007KT 10SM -RA FEW016 OVC025 23/21 A3002 RMK AO2 SLP161 P0001 T02330211
KMEM 212110Z 34007KT 10SM -RA BKN021 OVC120 24/21 A3003 RMK AO2 P0000 T02390206
KMEM 212054Z 00000KT 10SM -RA FEW023 SCT070 OVC120 25/22 A3001 RMK AO2 RAB17 SLP157 P0000 60000 T02500217 57004
KMEM 212048Z VRB04KT 10SM -RA SCT024 BKN090 BKN120 OVC200 26/21 A3001 RMK AO2 RAB17 P0000

METAR Board
Radar Display
Forecast Discussion
For situational awareness. Not to be used for flight planning purposes.